Time;durP1;ratioP1;P1;durP2;ratioP2;P2;SDS_P1;SDS_P2;PMS_P1;PMS_P2;Temp;Humidity;BMP_temperature;BMP_pressure;BME280_temperature;BME280_humidity;BME280_pressure;Samples;Min_cycle;Max_cycle;Signal;HPM_P1;HPM_P2
2024/04/29 00:00:34;;;;;;;6.80;4.28;;;;;;;11.15;75.09;100176.72;6253389;22;20004;-94
2024/04/29 00:03:02;;;;;;;7.28;4.65;;;;;;;11.02;74.33;100153.69;6251448;22;20004;-92
2024/04/29 00:05:27;;;;;;;8.25;4.60;;;;;;;11.13;74.44;100182.38;6252938;22;20010;-95
2024/04/29 00:07:55;;;;;;;7.07;4.70;;;;;;;10.97;74.32;100158.19;6251343;22;19992;-94
2024/04/29 00:10:21;;;;;;;7.70;4.25;;;;;;;11.01;75.14;100178.19;6254368;22;20006;-94
2024/04/29 00:12:47;;;;;;;9.55;4.60;;;;;;;10.98;74.86;100181.38;6252317;22;19992;-94
2024/04/29 00:15:12;;;;;;;7.82;5.30;;;;;;;10.86;74.93;100166.16;6253070;22;20033;-95
2024/04/29 00:17:38;;;;;;;8.07;5.18;;;;;;;10.80;74.76;100153.69;6251707;22;19996;-95
2024/04/29 00:20:04;;;;;;;8.20;5.28;;;;;;;10.91;75.03;100173.47;6254137;22;19999;-94
2024/04/29 00:22:30;;;;;;;9.93;5.93;;;;;;;10.67;75.02;100144.09;6252383;22;19988;-96
2024/04/29 00:24:55;;;;;;;10.57;5.93;;;;;;;10.72;75.27;100152.22;6251762;22;20041;-94
2024/04/29 00:27:21;;;;;;;13.68;6.07;;;;;;;10.78;75.44;100168.47;6252271;22;20004;-95
2024/04/29 00:30:25;;;;;;;9.88;6.03;;;;;;;10.82;75.49;100183.88;6251987;22;20007;-95
2024/04/29 00:32:51;;;;;;;10.00;5.63;;;;;;;10.68;76.12;100178.03;6333128;22;19992;-93
2024/04/29 00:35:17;;;;;;;12.18;5.78;;;;;;;10.48;76.15;100175.09;6252824;22;19992;-95
2024/04/29 00:37:42;;;;;;;12.07;6.35;;;;;;;10.45;76.58;100171.00;6252554;22;20041;-94
2024/04/29 00:40:11;;;;;;;8.45;5.57;;;;;;;10.51;76.89;100194.22;6252704;22;19992;-93
2024/04/29 00:42:38;;;;;;;10.70;6.22;;;;;;;10.29;76.72;100169.97;6256247;22;20412;-94
2024/04/29 00:45:04;;;;;;;9.77;6.30;;;;;;;10.29;76.98;100167.28;6254359;22;19992;-94
2024/04/29 00:47:30;;;;;;;8.35;5.82;;;;;;;10.35;76.74;100180.81;6254230;22;20309;-94
2024/04/29 00:49:56;;;;;;;9.57;6.18;;;;;;;10.27;77.01;100174.75;6253195;22;20007;-94
2024/04/29 00:52:24;;;;;;;11.95;6.55;;;;;;;10.31;76.57;100183.16;6260299;22;19996;-94
2024/04/29 00:54:50;;;;;;;9.57;5.90;;;;;;;10.28;76.76;100192.53;6252749;22;20000;-92
2024/04/29 00:57:15;;;;;;;14.35;5.78;;;;;;;10.16;76.95;100175.66;6251462;22;20432;-94
2024/04/29 00:59:41;;;;;;;10.32;5.80;;;;;;;10.13;77.33;100178.84;6252268;22;20004;-95
2024/04/29 01:02:07;;;;;;;7.60;5.80;;;;;;;10.25;77.16;100200.25;6251617;22;19992;-95
2024/04/29 01:04:32;;;;;;;9.55;5.68;;;;;;;10.09;76.61;100161.56;6251947;22;20016;-94
2024/04/29 01:06:58;;;;;;;11.77;5.68;;;;;;;10.06;76.84;100170.91;6251098;22;19984;-94
2024/04/29 01:09:24;;;;;;;8.85;5.28;;;;;;;10.11;77.45;100181.78;6253682;22;20003;-95
2024/04/29 01:11:49;;;;;;;8.40;5.78;;;;;;;10.16;76.81;100189.09;6255755;22;19996;-95
2024/04/29 01:14:15;;;;;;;8.38;5.57;;;;;;;10.16;77.12;100183.72;6255919;22;20004;-94
2024/04/29 01:16:40;;;;;;;7.93;5.28;;;;;;;10.06;76.89;100180.88;6251518;22;19992;-92
2024/04/29 01:19:08;;;;;;;13.20;5.53;;;;;;;10.09;76.99;100188.47;6255862;22;19992;-94
2024/04/29 01:21:33;;;;;;;10.98;5.88;;;;;;;10.13;77.51;100216.53;6255764;22;20003;-93
2024/04/29 01:23:59;;;;;;;13.27;5.07;;;;;;;10.11;77.31;100203.31;6253788;22;19992;-94
2024/04/29 01:26:25;;;;;;;12.32;5.45;;;;;;;10.00;76.95;100196.13;6253933;22;19996;-93
2024/04/29 01:28:50;;;;;;;10.75;5.65;;;;;;;10.00;77.43;100193.44;6253979;22;20408;-93
2024/04/29 01:31:16;;;;;;;7.28;5.15;;;;;;;9.94;77.68;100199.81;6254473;22;20007;-95
2024/04/29 01:33:43;;;;;;;11.18;6.13;;;;;;;10.07;77.04;100215.63;6255707;22;19995;-94
2024/04/29 01:36:09;;;;;;;10.00;5.95;;;;;;;10.15;76.57;100200.09;6256570;22;20010;-96
2024/04/29 01:38:34;;;;;;;10.15;5.47;;;;;;;10.18;76.46;100184.28;6255440;22;20008;-92
2024/04/29 01:41:00;;;;;;;7.70;4.72;;;;;;;10.25;75.78;100184.13;6256262;22;20011;-94
2024/04/29 01:43:26;;;;;;;9.25;5.30;;;;;;;10.43;76.00;100205.41;6255828;22;19995;-94
2024/04/29 01:45:52;;;;;;;10.27;5.00;;;;;;;10.44;76.03;100207.06;6255687;22;20076;-94
2024/04/29 01:48:17;;;;;;;10.75;4.68;;;;;;;10.42;75.81;100211.06;6254992;22;20027;-94
2024/04/29 01:50:43;;;;;;;6.47;5.15;;;;;;;10.36;76.08;100217.44;6254400;22;20000;-94
2024/04/29 01:53:08;;;;;;;7.85;5.28;;;;;;;10.20;76.32;100201.00;6254671;22;20000;-93
2024/04/29 01:55:34;;;;;;;8.77;5.38;;;;;;;10.17;76.10;100200.69;6253303;22;20365;-94
2024/04/29 01:58:00;;;;;;;7.35;5.57;;;;;;;10.17;76.17;100209.59;6254669;22;20000;-92
2024/04/29 02:00:25;;;;;;;8.77;5.13;;;;;;;10.07;76.47;100196.78;6254021;22;19996;-93
2024/04/29 02:02:51;;;;;;;7.43;5.28;;;;;;;10.19;76.75;100212.00;6253396;22;20007;-93
2024/04/29 02:05:17;;;;;;;13.30;5.50;;;;;;;10.14;76.70;100202.00;6254373;22;20000;-94
2024/04/29 02:07:42;;;;;;;7.65;4.35;;;;;;;9.97;76.83;100182.34;6254740;22;20007;-94
2024/04/29 02:10:08;;;;;;;7.43;5.03;;;;;;;9.91;76.19;100176.88;6254414;22;20003;-92
2024/04/29 02:12:34;;;;;;;10.75;4.93;;;;;;;10.01;76.80;100213.09;6254579;22;20407;-92
2024/04/29 02:14:59;;;;;;;7.30;4.50;;;;;;;9.93;76.58;100205.41;6253471;22;19996;-92
2024/04/29 02:17:25;;;;;;;7.95;4.32;;;;;;;9.84;76.43;100202.31;6255296;22;20067;-92
2024/04/29 02:19:54;;;;;;;9.07;5.07;;;;;;;9.74;76.44;100192.19;6253977;22;20016;-94
2024/04/29 02:22:19;;;;;;;7.95;4.10;;;;;;;9.76;76.55;100191.97;6256129;22;19999;-93
2024/04/29 02:24:45;;;;;;;9.43;4.80;;;;;;;9.70;76.55;100191.84;6252470;22;20015;-92
2024/04/29 02:27:18;;;;;;;5.75;4.25;;;;;;;9.77;76.38;100199.75;6258021;22;19996;-95
2024/04/29 02:29:44;;;;;;;8.05;3.95;;;;;;;9.81;75.92;100206.28;6253479;22;20011;-92
2024/04/29 02:32:09;;;;;;;6.60;4.00;;;;;;;9.96;76.18;100221.06;6253904;22;20000;-93
2024/04/29 02:34:35;;;;;;;5.35;3.63;;;;;;;9.81;76.16;100200.91;6253421;22;20014;-94
2024/04/29 02:37:01;;;;;;;6.32;4.20;;;;;;;9.71;76.80;100198.88;6293085;22;20006;-92
2024/04/29 02:39:26;;;;;;;7.85;4.90;;;;;;;9.79;76.43;100210.28;6252793;22;19992;-95
2024/04/29 02:41:52;;;;;;;14.52;6.47;;;;;;;9.82;76.94;100221.38;6251871;22;20299;-92
2024/04/29 02:44:18;;;;;;;11.38;6.90;;;;;;;9.64;77.05;100195.50;6253161;22;20444;-93
2024/04/29 02:46:44;;;;;;;12.73;7.68;;;;;;;9.51;76.88;100177.00;6252335;22;19988;-95
2024/04/29 02:49:09;;;;;;;12.02;6.88;;;;;;;9.68;76.69;100202.03;6252696;22;20411;-93
2024/04/29 02:51:40;;;;;;;12.68;7.57;;;;;;;9.66;76.92;100198.78;6252540;22;19983;-93
2024/04/29 02:54:06;;;;;;;10.18;6.88;;;;;;;9.65;76.69;100199.84;6252957;22;19996;-94
2024/04/29 02:56:32;;;;;;;11.38;6.20;;;;;;;9.70;77.05;100209.88;6252959;22;20041;-92
2024/04/29 02:58:58;;;;;;;14.95;6.72;;;;;;;9.67;77.18;100208.50;6256043;22;20280;-93
2024/04/29 03:01:26;;;;;;;11.05;6.13;;;;;;;9.78;76.71;100214.84;6252815;22;20011;-95
2024/04/29 03:03:52;;;;;;;12.07;6.57;;;;;;;9.70;76.93;100205.31;6253548;22;20012;-93
2024/04/29 03:06:17;;;;;;;19.52;6.97;;;;;;;9.75;77.10;100234.16;6252616;22;20094;-93
2024/04/29 03:08:43;;;;;;;11.07;5.97;;;;;;;9.62;77.07;100207.56;6252149;22;19996;-94
2024/04/29 03:11:15;;;;;;;13.20;6.10;;;;;;;9.70;77.08;100226.00;6293314;22;19992;-93
2024/04/29 03:13:41;;;;;;;9.15;5.40;;;;;;;9.67;76.92;100232.69;6253575;22;20004;-93
2024/04/29 03:16:08;;;;;;;12.02;6.03;;;;;;;9.56;77.32;100220.09;6254475;22;20007;-93
2024/04/29 03:18:36;;;;;;;9.38;5.65;;;;;;;9.60;77.43;100234.69;6254692;22;20002;-93
2024/04/29 03:21:11;;;;;;;14.93;6.07;;;;;;;9.57;77.15;100232.50;6254842;22;20284;-94
2024/04/29 03:23:39;;;;;;;10.52;5.93;;;;;;;9.46;77.04;100217.22;6252788;22;19996;-94
2024/04/29 03:26:05;;;;;;;8.55;5.47;;;;;;;9.40;76.77;100220.88;6253677;22;19996;-94
2024/04/29 03:28:32;;;;;;;7.40;4.63;;;;;;;9.35;76.89;100218.91;6252727;22;20000;-95
2024/04/29 03:30:58;;;;;;;10.55;5.47;;;;;;;9.25;77.07;100207.94;6252896;22;20004;-94
2024/04/29 03:33:23;;;;;;;7.45;4.60;;;;;;;9.48;76.96;100245.50;6252203;22;20000;-93
2024/04/29 03:35:49;;;;;;;6.93;4.82;;;;;;;9.37;76.68;100232.09;6252391;22;20014;-94
2024/04/29 03:38:15;;;;;;;8.20;4.97;;;;;;;9.36;76.56;100223.22;6252414;22;20000;-93
2024/04/29 03:40:41;;;;;;;11.20;4.72;;;;;;;9.36;76.70;100236.69;6255002;22;20007;-94
2024/04/29 03:43:07;;;;;;;10.07;4.70;;;;;;;9.40;76.86;100248.59;6254488;22;20400;-94
2024/04/29 03:45:33;;;;;;;7.50;4.38;;;;;;;9.33;77.45;100245.19;6292506;22;20000;-93
2024/04/29 03:47:59;;;;;;;10.35;4.78;;;;;;;9.30;76.95;100251.06;6252326;22;20067;-95
2024/04/29 03:50:27;;;;;;;7.47;5.07;;;;;;;9.13;77.34;100229.50;6255521;22;20002;-94
2024/04/29 03:52:56;;;;;;;10.60;4.90;;;;;;;9.17;77.54;100244.09;6254803;22;20292;-93
2024/04/29 03:55:29;;;;;;;7.53;4.28;;;;;;;9.25;77.62;100251.75;6256218;22;20062;-95
2024/04/29 03:57:56;;;;;;;8.90;4.53;;;;;;;9.32;77.59;100278.53;6252838;22;20000;-95
2024/04/29 04:00:22;;;;;;;8.55;5.90;;;;;;;9.29;77.38;100276.28;6292647;22;19996;-92
2024/04/29 04:02:47;;;;;;;10.00;5.88;;;;;;;9.13;78.06;100260.91;6252262;22;19996;-93
2024/04/29 04:05:13;;;;;;;18.75;6.45;;;;;;;9.08;77.52;100253.56;6251982;22;19999;-94
2024/04/29 04:07:39;;;;;;;10.30;6.00;;;;;;;9.14;77.94;100266.03;6291416;22;19996;-91
2024/04/29 04:10:07;;;;;;;12.73;5.55;;;;;;;9.30;77.64;100289.50;6253301;22;20002;-93
2024/04/29 04:12:33;;;;;;;140.13;14.43;;;;;;;9.13;77.67;100274.34;6297840;22;20016;-95
2024/04/29 04:15:32;;;;;;;16.35;6.80;;;;;;;9.31;77.69;100285.75;6254748;22;19999;-95
2024/04/29 04:18:08;;;;;;;15.63;7.22;;;;;;;9.15;77.39;100259.63;6299918;22;19996;-96
2024/04/29 04:20:43;;;;;;;20.85;8.32;;;;;;;9.17;77.40;100268.28;6256557;22;20425;-93
2024/04/29 04:23:09;;;;;;;16.25;8.20;;;;;;;9.32;77.28;100281.22;6258778;22;19999;-95
2024/04/29 04:25:34;;;;;;;14.18;8.57;;;;;;;9.46;77.14;100287.09;6253919;22;20004;-93
2024/04/29 04:28:00;;;;;;;21.25;11.32;;;;;;;9.42;76.54;100270.66;6294880;22;20000;-92
2024/04/29 04:30:29;;;;;;;19.38;9.60;;;;;;;9.60;76.71;100290.34;6257125;22;19996;-96
2024/04/29 04:32:57;;;;;;;19.60;10.65;;;;;;;9.68;76.60;100306.09;6251335;22;20297;-92
2024/04/29 04:35:23;;;;;;;22.58;9.60;;;;;;;9.75;76.42;100287.13;6293930;22;20000;-95
2024/04/29 04:37:52;;;;;;;23.98;9.60;;;;;;;9.79;76.04;100291.78;6252480;22;20007;-92
2024/04/29 04:40:17;;;;;;;16.33;8.88;;;;;;;10.04;75.61;100312.97;6254494;22;19991;-93
2024/04/29 04:42:46;;;;;;;23.05;9.05;;;;;;;10.02;75.05;100290.88;6261582;22;19992;-95
2024/04/29 04:48:47;;;;;;;15.00;8.23;;;;;;;10.32;74.32;100306.75;6349799;22;20005;-95
2024/04/29 04:51:50;;;;;;;19.13;9.55;;;;;;;10.41;73.90;100290.19;6223516;22;20013;-94
2024/04/29 05:13:17;;;;;;;18.40;10.32;;;;;;;11.56;70.76;100292.31;6310949;22;20252;-95
2024/04/29 05:15:43;;;;;;;18.00;10.00;;;;;;;11.74;70.47;100294.69;6258620;22;19996;-90
2024/04/29 05:18:19;;;;;;;;;;;;;;;;;;;;;
2024/04/29 05:21:02;;;;;;;23.90;13.85;;;;;;;12.33;69.25;100327.16;6254834;22;19981;-94
2024/04/29 05:23:45;;;;;;;23.67;12.50;;;;;;;12.27;69.67;100294.97;6211694;22;20425;-94
2024/04/29 05:26:31;;;;;;;;;;;;;;;;;;;;;
2024/04/29 05:28:57;;;;;;;26.83;13.57;;;;;;;12.55;68.03;100310.03;6215304;22;20005;-94
2024/04/29 05:31:28;;;;;;;16.65;12.02;;;;;;;12.62;67.48;100297.13;6169906;22;20009;-93
2024/04/29 05:33:59;;;;;;;20.58;12.05;;;;;;;12.73;67.76;100304.22;6172586;22;20302;-96
2024/04/29 05:36:34;;;;;;;24.98;13.30;;;;;;;12.68;67.41;100295.28;6211724;22;19992;-93
2024/04/29 05:39:00;;;;;;;20.15;11.98;;;;;;;12.98;66.75;100337.09;6211797;22;20001;-94
2024/04/29 05:44:54;;;;;;;24.10;13.80;;;;;;;12.98;66.68;100323.59;6261550;22;19993;-93
2024/04/29 05:48:12;;;;;;;21.00;11.50;;;;;;;13.04;67.00;100326.06;6175221;22;19997;-95
2024/04/29 05:50:56;;;;;;;15.32;10.85;;;;;;;13.01;66.46;100315.78;6072364;23;19991;-95
2024/04/29 05:57:29;;;;;;;16.00;9.63;;;;;;;13.37;66.07;100331.41;6182657;23;19998;-95
2024/04/29 06:00:42;;;;;;;12.68;9.65;;;;;;;13.55;65.69;100341.78;6166123;23;20022;-96
2024/04/29 06:03:24;;;;;;;;;;;;;;;;;;;;;
2024/04/29 06:18:49;;;;;;;14.70;10.10;;;;;;;14.25;64.26;100353.06;6057836;23;20006;-95
2024/04/29 06:21:47;;;;;;;;;;;;;;;;;;;;;
2024/04/29 06:24:38;;;;;;;17.85;10.00;;;;;;;14.30;63.43;100334.13;6036210;23;19996;-96
2024/04/29 06:28:01;;;;;;;15.02;9.13;;;;;;;14.78;61.68;100363.72;6265610;22;19991;-96
2024/04/29 06:34:13;;;;;;;21.20;11.07;;;;;;;14.75;61.39;100373.19;6197219;23;19997;-93
2024/04/29 06:37:15;;;;;;;15.45;10.07;;;;;;;14.67;61.51;100346.63;6152567;23;20005;-92
2024/04/29 06:39:41;;;;;;;19.33;10.20;;;;;;;15.01;61.15;100373.19;6193096;23;20006;-92
2024/04/29 06:45:29;;;;;;;20.58;10.77;;;;;;;14.99;61.35;100340.09;6194611;22;20002;-93
2024/04/29 06:47:56;;;;;;;16.33;9.38;;;;;;;15.16;60.79;100356.06;6257436;22;20000;-92
2024/04/29 06:50:22;;;;;;;17.00;9.75;;;;;;;15.20;60.97;100349.00;6257721;22;19991;-89
2024/04/29 06:53:08;;;;;;;;;;;;;;;;;;;;;
2024/04/29 06:55:59;;;;;;;;;;;;;;;;;;;;;
2024/04/29 07:15:29;;;;;;;;;;;;;;;;;;;;;
2024/04/29 07:18:58;;;;;;;14.65;9.07;;;;;;;16.85;56.38;100376.09;6317803;22;19991;-96
2024/04/29 07:21:50;;;;;;;21.15;9.48;;;;;;;17.00;56.46;100369.75;6307217;22;20279;-96
2024/04/29 07:35:30;;;;;;;17.00;11.77;;;;;;;17.01;56.67;100344.13;5978426;23;20231;-96
2024/04/29 07:56:57;;;;;;;8.98;5.72;;;;;;;18.19;51.51;100332.63;6342168;22;20007;-94
2024/04/29 07:59:34;;;;;;;9.23;5.35;;;;;;;18.49;50.15;100344.16;6204834;22;19986;-96
2024/04/29 08:02:37;;;;;;;7.88;4.30;;;;;;;18.66;48.19;100368.19;6301145;22;19996;-95
2024/04/29 08:05:06;;;;;;;26.45;15.32;;;;;;;18.72;50.17;100342.44;6331014;22;20014;-95
2024/04/29 08:07:37;;;;;;;11.13;5.60;;;;;;;18.95;50.15;100362.53;6268091;22;19995;-96
2024/04/29 08:20:37;;;;;;;22.05;14.15;;;;;;;19.00;47.85;100329.66;6339275;22;20032;-96
2024/04/29 08:46:40;;;;;;;12.80;6.43;;;;;;;19.77;39.45;100345.34;6250359;22;20511;-96
2024/04/29 08:49:50;;;;;;;28.80;21.80;;;;;;;20.13;39.25;100376.56;6308819;22;20055;-96
2024/04/29 09:30:18;;;;;;;;;;;;;;;;;;;;;
2024/04/29 09:33:09;;;;;;;4.43;2.70;;;;;;;20.41;40.92;100376.50;6061315;23;19996;-95
2024/04/29 09:35:46;;;;;;;10.47;6.53;;;;;;;20.26;41.63;100375.75;6032146;23;20322;-94
2024/04/29 09:38:32;;;;;;;;;;;;;;;;;;;;;
2024/04/29 09:44:50;;;;;;;;;;;;;;;;;;;;;
2024/04/29 09:48:02;;;;;;;;;;;;;;;;;;;;;
2024/04/29 09:50:45;;;;;;;;;;;;;;;;;;;;;
2024/04/29 09:53:57;;;;;;;;;;;;;;;;;;;;;
2024/04/29 09:57:19;;;;;;;15.63;5.50;;;;;;;21.11;41.07;100369.59;6252973;22;20017;-96
2024/04/29 10:00:05;;;;;;;6.13;2.38;;;;;;;21.18;41.37;100354.28;6100442;23;20002;-96
2024/04/29 10:02:31;;;;;;;7.65;3.38;;;;;;;21.43;41.05;100349.28;6064915;23;20045;-95
2024/04/29 10:05:22;;;;;;;;;;;;;;;;;;;;;
2024/04/29 10:09:05;;;;;;;;;;;;;;;;;;;;;
2024/04/29 11:06:58;;;;;;;;;;;;;;;;;;;;;
2024/04/29 11:27:53;;;;;;;3.05;1.40;;;;;;;21.88;31.97;100315.34;6272121;22;20018;-94
2024/04/29 11:39:25;;;;;;;3.35;1.30;;;;;;;21.01;32.74;100295.91;6127211;23;19995;-96
2024/04/29 11:42:02;;;;;;;3.53;2.13;;;;;;;20.58;33.78;100289.88;6106584;23;20010;-96
2024/04/29 11:44:40;;;;;;;4.45;2.28;;;;;;;20.69;34.33;100301.41;6238367;22;20025;-95
2024/04/29 11:47:19;;;;;;;;;;;;;;;;;;;;;
2024/04/29 11:49:45;;;;;;;2.17;1.70;;;;;;;20.62;34.74;100292.81;6269502;22;20023;-95
2024/04/29 11:52:11;;;;;;;5.20;1.65;;;;;;;20.82;34.88;100302.44;6264315;22;19995;-96
2024/04/29 11:54:57;;;;;;;;;;;;;;;;;;;;;
2024/04/29 11:57:33;;;;;;;3.60;1.30;;;;;;;21.10;34.20;100291.28;6314535;22;20006;-95
2024/04/29 12:00:03;;;;;;;2.10;1.27;;;;;;;21.25;34.09;100277.16;6264668;22;19994;-96
2024/04/29 12:10:40;;;;;;;;;;;;;;;21.49;34.04;100298.69;6278026;22;20048;-96
2024/04/29 12:33:53;;;;;;;2.00;1.17;;;;;;;20.59;34.43;100318.09;6056532;23;19992;-95
2024/04/29 12:59:37;;;;;;;;;;;;;;;;;;;;;
2024/04/29 13:10:19;;;;;;;2.13;1.40;;;;;;;20.08;35.24;100322.00;6296774;22;20016;-94
2024/04/29 13:12:45;;;;;;;1.70;1.35;;;;;;;19.79;34.92;100282.19;6213382;22;20084;-94
2024/04/29 13:15:46;;;;;;;4.28;1.10;;;;;;;19.67;35.73;100290.94;6174275;22;20000;-96
2024/04/29 13:18:37;;;;;;;3.30;1.92;;;;;;;19.80;36.35;100300.22;6211386;22;19993;-94
2024/04/29 13:21:11;;;;;;;2.80;1.30;;;;;;;19.48;36.60;100282.03;6022944;23;20003;-93
2024/04/29 13:24:25;;;;;;;;;;;;;;;;;;;;;
2024/04/29 13:46:30;;;;;;;;;;;;;;;;;;;;;
2024/04/29 13:56:14;;;;;;;2.10;1.50;;;;;;;19.12;37.96;100267.19;5902718;23;20006;-96
2024/04/29 14:01:48;;;;;;;4.03;1.70;;;;;;;19.04;38.63;100286.22;5903287;24;20046;-96
2024/04/29 14:05:37;;;;;;;;;;;;;;;;;;;;;
2024/04/29 14:08:17;;;;;;;;;;;;;;;;;;;;;
2024/04/29 14:11:26;;;;;;;6.13;2.05;;;;;;;18.94;38.74;100282.53;6063377;23;19989;-93
2024/04/29 14:14:05;;;;;;;;;;;;;;;;;;;;;
2024/04/29 14:20:13;;;;;;;2.88;2.10;;;;;;;18.79;39.46;100288.31;6193081;23;20000;-95
2024/04/29 14:22:50;;;;;;;5.53;2.00;;;;;;;18.72;39.35;100280.47;6247162;22;19991;-94
2024/04/29 14:25:23;;;;;;;7.63;2.60;;;;;;;18.67;39.83;100283.28;6271486;22;19991;-95
2024/04/29 14:27:51;;;;;;;7.07;2.25;;;;;;;18.57;39.92;100286.19;6308890;22;20002;-95
2024/04/29 14:44:22;;;;;;;3.72;1.98;;;;;;;18.38;40.62;100267.16;6386967;22;19998;-94
2024/04/29 14:50:37;;;;;;;7.07;2.40;;;;;;;18.38;44.16;100287.03;6186184;23;19993;-93
2024/04/29 14:57:08;;;;;;;4.70;2.70;;;;;;;18.36;47.41;100292.03;6316938;22;20000;-95
2024/04/29 14:59:44;;;;;;;4.10;2.35;;;;;;;18.14;46.43;100281.72;6333684;22;20000;-94
2024/04/29 15:02:23;;;;;;;;;;;;;;;;;;;;;
2024/04/29 15:05:01;;;;;;;;;;;;;;;;;;;;;
2024/04/29 15:07:30;;;;;;;5.75;2.90;;;;;;;17.80;50.28;100283.84;6299709;22;20003;-93
2024/04/29 15:09:56;;;;;;;6.88;2.85;;;;;;;17.68;53.07;100287.00;6253942;22;20364;-92
2024/04/29 15:12:22;;;;;;;6.68;3.00;;;;;;;17.71;53.38;100303.56;6334224;22;19996;-93
2024/04/29 15:14:51;;;;;;;5.63;3.45;;;;;;;17.54;55.22;100289.66;6253089;22;19996;-92
2024/04/29 15:17:21;;;;;;;5.78;3.15;;;;;;;17.65;54.00;100325.72;6255420;22;19996;-95
2024/04/29 15:19:58;;;;;;;5.32;2.85;;;;;;;17.54;55.07;100331.28;6256791;22;19996;-93
2024/04/29 15:22:24;;;;;;;6.22;3.50;;;;;;;17.41;58.11;100318.41;6216249;22;19992;-93
2024/04/29 15:25:33;;;;;;;;;;;;;;;;;;;;;
2024/04/29 15:28:01;;;;;;;7.32;3.55;;;;;;;17.09;58.20;100305.41;6253898;22;20420;-94
2024/04/29 15:30:35;;;;;;;9.98;3.70;;;;;;;17.05;57.78;100310.63;6296682;22;19995;-93
2024/04/29 15:33:04;;;;;;;9.05;3.30;;;;;;;17.13;58.67;100339.91;6254697;22;19996;-90
2024/04/29 15:35:41;;;;;;;;;;;;;;;;;;;;;
2024/04/29 15:38:09;;;;;;;11.43;4.03;;;;;;;16.75;62.63;100320.69;6296972;22;20288;-93
2024/04/29 15:40:36;;;;;;;13.00;4.65;;;;;;;16.68;68.00;100328.34;6248074;22;20050;-93
2024/04/29 15:43:02;;;;;;;8.48;4.07;;;;;;;16.27;71.48;100331.41;6213992;22;19995;-91
2024/04/29 15:45:42;;;;;;;7.70;5.10;;;;;;;16.15;71.68;100314.66;6249792;22;20400;-92
2024/04/29 15:48:10;;;;;;;8.07;5.90;;;;;;;16.00;71.19;100310.13;6260308;22;19995;-92
2024/04/29 15:50:38;;;;;;;10.57;4.85;;;;;;;15.74;71.41;100295.88;6287894;22;20007;-93
2024/04/29 15:53:07;;;;;;;10.75;5.40;;;;;;;15.74;71.64;100340.13;6214100;22;19996;-92
2024/04/29 15:55:40;;;;;;;9.68;5.28;;;;;;;15.65;71.21;100325.50;6252612;22;19995;-93
2024/04/29 15:58:07;;;;;;;10.02;5.47;;;;;;;15.46;74.08;100311.75;6254898;22;20000;-93
2024/04/29 16:00:44;;;;;;;7.30;4.50;;;;;;;15.42;73.46;100316.09;6213182;22;19999;-94
2024/04/29 16:03:11;;;;;;;7.32;4.18;;;;;;;15.31;74.57;100317.22;6252269;22;19996;-92
2024/04/29 16:05:37;;;;;;;15.05;5.13;;;;;;;15.24;74.31;100322.94;6252324;22;19996;-93
2024/04/29 16:08:12;;;;;;;;;;;;;;;;;;;;;
2024/04/29 16:10:38;;;;;;;6.03;3.85;;;;;;;15.13;76.62;100335.72;6258024;22;20000;-94
2024/04/29 16:13:04;;;;;;;6.60;3.67;;;;;;;15.25;75.85;100353.59;6214074;22;20020;-93
2024/04/29 16:15:33;;;;;;;5.40;3.47;;;;;;;15.20;75.40;100361.75;6214043;22;19995;-93
2024/04/29 16:17:59;;;;;;;10.20;4.18;;;;;;;15.06;75.91;100335.19;6152094;23;20018;-92
2024/04/29 16:20:33;;;;;;;9.93;4.28;;;;;;;15.06;76.40;100356.06;6114966;23;19994;-93
2024/04/29 16:23:04;;;;;;;7.50;3.80;;;;;;;14.97;76.59;100344.97;6117207;23;20029;-94
2024/04/29 16:25:30;;;;;;;4.60;3.28;;;;;;;14.90;74.48;100329.00;6115233;23;19998;-96
2024/04/29 16:28:04;;;;;;;6.60;5.32;;;;;;;14.99;74.03;100318.38;6113628;23;20006;-94
2024/04/29 16:30:44;;;;;;;5.10;3.20;;;;;;;15.05;72.28;100339.00;6115594;23;20054;-93
2024/04/29 16:33:12;;;;;;;4.95;3.33;;;;;;;15.23;71.25;100363.91;6113177;23;19998;-94
2024/04/29 16:35:38;;;;;;;6.47;3.20;;;;;;;15.20;72.22;100365.28;6074667;23;20021;-92
2024/04/29 16:38:04;;;;;;;9.32;3.42;;;;;;;15.07;71.85;100344.97;6072606;23;20290;-93
2024/04/29 16:40:29;;;;;;;4.40;3.22;;;;;;;15.26;70.90;100361.47;6111585;23;20006;-92
2024/04/29 16:42:55;;;;;;;6.22;3.50;;;;;;;15.08;69.60;100335.72;6111444;23;19994;-91
2024/04/29 16:45:24;;;;;;;6.95;2.80;;;;;;;15.00;69.77;100330.84;6074247;23;20315;-91
2024/04/29 16:48:14;;;;;;;5.53;3.30;;;;;;;15.01;71.94;100326.25;6115312;22;20027;-94
2024/04/29 16:50:40;;;;;;;5.32;3.60;;;;;;;15.00;71.90;100340.91;6257474;22;19996;-93
2024/04/29 16:53:09;;;;;;;7.00;4.15;;;;;;;14.90;71.58;100325.44;6216498;22;20075;-94
2024/04/29 16:55:40;;;;;;;6.20;3.97;;;;;;;14.89;72.65;100316.50;6219286;22;19996;-93
2024/04/29 16:58:10;;;;;;;7.68;4.75;;;;;;;14.98;70.91;100326.78;6336098;22;20000;-93
2024/04/29 17:00:35;;;;;;;11.77;6.25;;;;;;;14.98;69.67;100308.63;6254500;22;20429;-94
2024/04/29 17:03:02;;;;;;;11.98;6.45;;;;;;;14.97;70.44;100314.34;6215050;22;19984;-94
2024/04/29 17:05:27;;;;;;;17.77;7.28;;;;;;;14.85;70.95;100331.69;6216297;22;19996;-93
2024/04/29 17:07:56;;;;;;;12.40;7.30;;;;;;;14.95;69.91;100320.03;6216116;22;19984;-93
2024/04/29 17:10:23;;;;;;;16.48;8.65;;;;;;;14.81;71.02;100305.41;6216269;22;19991;-93
2024/04/29 17:12:51;;;;;;;10.90;7.57;;;;;;;14.74;72.85;100303.78;6216608;22;20328;-93
2024/04/29 17:15:17;;;;;;;8.63;5.78;;;;;;;14.60;70.23;100297.28;6214936;22;20005;-94
2024/04/29 17:17:44;;;;;;;6.28;5.13;;;;;;;14.66;70.93;100296.19;6254125;22;20034;-94
2024/04/29 17:20:13;;;;;;;14.25;6.18;;;;;;;14.59;74.86;100290.25;6214616;22;20344;-94
2024/04/29 17:22:41;;;;;;;10.68;6.03;;;;;;;14.70;75.18;100302.69;6252620;22;20000;-94
2024/04/29 17:25:10;;;;;;;9.30;6.20;;;;;;;14.58;76.14;100285.91;6254604;22;20064;-94
2024/04/29 17:27:36;;;;;;;8.52;6.13;;;;;;;14.73;77.05;100317.59;6255085;22;20003;-94
2024/04/29 17:30:03;;;;;;;8.50;5.22;;;;;;;14.55;75.88;100283.72;6216272;22;20428;-95
2024/04/29 17:32:29;;;;;;;7.10;5.05;;;;;;;14.49;75.23;100292.94;6256352;22;20285;-94
2024/04/29 17:34:57;;;;;;;11.18;5.32;;;;;;;14.55;76.03;100306.25;6215624;22;20011;-96
2024/04/29 17:37:26;;;;;;;10.55;6.18;;;;;;;14.56;75.32;100312.47;6216410;22;20004;-94
2024/04/29 17:39:52;;;;;;;8.10;6.22;;;;;;;14.37;76.56;100304.03;6217011;22;20003;-93
2024/04/29 17:42:18;;;;;;;9.60;6.55;;;;;;;14.40;76.87;100306.22;6215260;22;19991;-93
2024/04/29 17:44:44;;;;;;;10.68;6.93;;;;;;;14.49;75.36;100299.16;6254956;22;19988;-95
2024/04/29 17:47:14;;;;;;;9.70;6.18;;;;;;;14.48;75.89;100283.97;6253985;22;20024;-94
2024/04/29 17:49:41;;;;;;;10.30;6.85;;;;;;;14.52;75.88;100290.47;6299239;22;20000;-95
2024/04/29 17:52:08;;;;;;;7.80;4.78;;;;;;;14.51;72.08;100317.88;6224504;22;20285;-94
2024/04/29 17:54:37;;;;;;;8.60;5.20;;;;;;;14.40;73.89;100289.13;6264282;22;19999;-94
2024/04/29 17:57:03;;;;;;;7.55;5.00;;;;;;;14.44;73.89;100279.38;6218131;22;20007;-95
2024/04/29 17:59:38;;;;;;;8.50;5.75;;;;;;;14.59;74.08;100294.84;6223441;22;19996;-94
2024/04/29 18:02:08;;;;;;;9.20;5.30;;;;;;;14.47;72.66;100268.00;6302656;22;19995;-93
2024/04/29 18:04:37;;;;;;;12.18;6.30;;;;;;;14.64;73.63;100297.56;6223999;22;20362;-94
2024/04/29 18:07:07;;;;;;;7.32;5.30;;;;;;;14.37;74.30;100295.91;6304343;22;20074;-93
2024/04/29 18:09:34;;;;;;;8.30;5.13;;;;;;;14.33;75.80;100317.31;6222038;22;20000;-94
2024/04/29 18:12:08;;;;;;;8.73;5.18;;;;;;;14.27;76.22;100309.47;6261015;22;19998;-96
2024/04/29 18:14:38;;;;;;;10.38;6.65;;;;;;;14.29;76.99;100320.84;6263435;22;20027;-93
2024/04/29 18:17:20;;;;;;;8.57;6.53;;;;;;;14.20;78.92;100317.84;6301834;22;19996;-95
2024/04/29 18:19:46;;;;;;;12.13;6.63;;;;;;;14.34;78.03;100340.63;6230286;22;20306;-94
2024/04/29 18:22:19;;;;;;;9.35;6.20;;;;;;;14.14;77.65;100322.44;6222598;22;20087;-94
2024/04/29 18:24:53;;;;;;;12.25;6.30;;;;;;;14.15;77.81;100332.22;6225432;22;20007;-96
2024/04/29 18:27:20;;;;;;;8.23;6.22;;;;;;;14.12;78.51;100329.22;6260044;22;20046;-95
2024/04/29 18:33:15;;;;;;;7.95;5.63;;;;;;;14.19;78.56;100358.75;6338421;22;20010;-96
2024/04/29 18:35:56;;;;;;;8.23;6.15;;;;;;;13.98;78.87;100328.91;6268347;22;19996;-96
2024/04/29 18:38:28;;;;;;;8.57;6.47;;;;;;;14.00;78.65;100347.59;6217072;22;20007;-95
2024/04/29 18:40:59;;;;;;;8.10;5.72;;;;;;;13.94;79.82;100342.19;6296760;22;20028;-92